Time;durP1;ratioP1;P1;durP2;ratioP2;P2;SDS_P1;SDS_P2;PMS_P1;PMS_P2;Temp;Humidity;BMP_temperature;BMP_pressure;BME280_temperature;BME280_humidity;BME280_pressure;Samples;Min_cycle;Max_cycle;Signal;HPM_P1;HPM_P2
2023/08/29 00:02:13;;;;;;;6.80;4.18;;;13.80;99.90;;;;;;5069213;28;20052;-57
2023/08/29 00:04:39;;;;;;;5.93;4.13;;;13.70;99.90;;;;;;5075233;28;20037;-57
2023/08/29 00:07:05;;;;;;;8.52;3.90;;;13.80;99.90;;;;;;5074650;28;20099;-56
2023/08/29 00:09:32;;;;;;;7.93;4.05;;;13.70;99.90;;;;;;5069969;28;20124;-57
2023/08/29 00:11:57;;;;;;;7.25;4.13;;;13.70;99.90;;;;;;5073587;28;20080;-56
2023/08/29 00:14:23;;;;;;;9.50;3.90;;;13.70;99.90;;;;;;5067018;28;20062;-57
2023/08/29 00:16:49;;;;;;;5.15;4.07;;;13.70;99.90;;;;;;5078243;28;20785;-57
2023/08/29 00:19:15;;;;;;;8.77;3.88;;;13.60;99.90;;;;;;5074822;28;20055;-57
2023/08/29 00:21:45;;;;;;;7.60;3.95;;;13.60;99.90;;;;;;5083053;28;20040;-56
2023/08/29 00:24:10;;;;;;;5.70;3.88;;;13.60;99.90;;;;;;5084049;28;20044;-57
2023/08/29 00:26:36;;;;;;;5.43;3.70;;;13.60;99.90;;;;;;5069748;28;20173;-57
2023/08/29 00:29:02;;;;;;;6.90;4.07;;;13.60;99.90;;;;;;5062751;28;20043;-56
2023/08/29 00:31:27;;;;;;;7.13;4.00;;;13.60;99.90;;;;;;5072100;28;20049;-57
2023/08/29 00:33:54;;;;;;;6.47;4.60;;;13.60;99.90;;;;;;5066499;28;20040;-57
2023/08/29 00:36:20;;;;;;;6.53;4.50;;;13.60;99.90;;;;;;5079742;28;20048;-57
2023/08/29 00:38:46;;;;;;;5.85;4.07;;;13.60;99.90;;;;;;5065225;28;20461;-56
2023/08/29 00:41:11;;;;;;;8.00;4.05;;;13.50;99.90;;;;;;5069471;28;20044;-57
2023/08/29 00:43:37;;;;;;;6.78;4.53;;;13.50;99.90;;;;;;5063252;28;20097;-57
2023/08/29 00:46:04;;;;;;;6.88;4.07;;;13.40;99.90;;;;;;5069075;28;20476;-57
2023/08/29 00:48:31;;;;;;;5.53;4.28;;;13.40;99.90;;;;;;5079185;28;20098;-57
2023/08/29 00:50:57;;;;;;;5.70;4.18;;;13.40;99.90;;;;;;5073374;28;20449;-57
2023/08/29 00:53:25;;;;;;;4.80;4.25;;;13.30;99.90;;;;;;5080455;28;20029;-57
2023/08/29 00:55:51;;;;;;;5.90;4.68;;;13.20;99.90;;;;;;5078880;28;20451;-57
2023/08/29 00:58:17;;;;;;;9.05;4.55;;;13.20;99.90;;;;;;5081568;28;20063;-57
2023/08/29 01:00:43;;;;;;;5.97;4.85;;;13.20;99.90;;;;;;5078460;28;20053;-57
2023/08/29 01:03:08;;;;;;;7.93;4.20;;;13.20;99.90;;;;;;5070641;28;20080;-57
2023/08/29 01:05:34;;;;;;;4.43;3.78;;;13.20;99.90;;;;;;5072851;28;20077;-57
2023/08/29 01:08:00;;;;;;;5.05;3.72;;;13.20;99.90;;;;;;5068301;28;20048;-57
2023/08/29 01:10:33;;;;;;;5.82;4.25;;;13.20;99.90;;;;;;5076609;28;21680;-56
2023/08/29 01:13:29;;;;;;;8.00;4.53;;;13.20;99.90;;;;;;5076799;28;20076;-56
2023/08/29 01:16:00;;;;;;;5.57;4.68;;;13.20;99.90;;;;;;5074758;28;20041;-57
2023/08/29 01:18:28;;;;;;;6.78;4.35;;;13.20;99.90;;;;;;5083315;28;20036;-56
2023/08/29 01:21:02;;;;;;;5.85;4.95;;;13.10;99.90;;;;;;5074128;28;20196;-57
2023/08/29 01:23:43;;;;;;;7.63;5.55;;;13.10;99.90;;;;;;5063593;28;20041;-57
2023/08/29 01:26:14;;;;;;;7.95;4.90;;;13.10;99.90;;;;;;5062358;28;20087;-56
2023/08/29 01:28:43;;;;;;;6.28;4.50;;;13.10;99.90;;;;;;5063982;28;20037;-57
2023/08/29 01:31:10;;;;;;;9.23;5.60;;;13.00;99.90;;;;;;5064548;28;20045;-57
2023/08/29 01:33:36;;;;;;;8.35;5.55;;;13.00;99.90;;;;;;5079641;28;20045;-57
2023/08/29 01:36:03;;;;;;;7.55;5.05;;;13.00;99.90;;;;;;5083053;28;20043;-56
2023/08/29 01:38:29;;;;;;;7.82;5.10;;;13.00;99.90;;;;;;5081041;28;20159;-56
2023/08/29 01:40:54;;;;;;;11.30;5.90;;;13.00;99.90;;;;;;5078258;28;20033;-57
2023/08/29 01:43:20;;;;;;;8.85;5.53;;;12.90;99.90;;;;;;5065489;28;20045;-57
2023/08/29 01:45:46;;;;;;;10.98;5.82;;;12.90;99.90;;;;;;5062322;28;20097;-57
2023/08/29 01:48:11;;;;;;;10.20;5.65;;;12.90;99.90;;;;;;5062794;28;20041;-57
2023/08/29 01:50:39;;;;;;;7.65;5.90;;;12.90;99.90;;;;;;5061308;28;20067;-56
2023/08/29 01:53:05;;;;;;;7.75;5.88;;;12.90;99.90;;;;;;5064412;28;20076;-57
2023/08/29 01:55:31;;;;;;;8.60;5.63;;;12.90;99.90;;;;;;5060928;28;20046;-57
2023/08/29 01:57:58;;;;;;;9.35;6.00;;;12.90;99.90;;;;;;5068699;28;20090;-57
2023/08/29 02:00:24;;;;;;;8.02;5.90;;;12.90;99.90;;;;;;5077374;28;20048;-56
2023/08/29 02:02:50;;;;;;;7.97;5.80;;;12.90;99.90;;;;;;5069915;28;20040;-57
2023/08/29 02:05:16;;;;;;;11.77;6.13;;;12.90;99.90;;;;;;5081782;28;20397;-56
2023/08/29 02:07:41;;;;;;;7.55;5.80;;;12.80;99.90;;;;;;5080375;28;20045;-57
2023/08/29 02:10:08;;;;;;;6.57;5.38;;;12.80;99.90;;;;;;5073402;28;20043;-57
2023/08/29 02:12:34;;;;;;;7.93;4.97;;;12.80;99.90;;;;;;5077120;28;20100;-56
2023/08/29 02:15:00;;;;;;;8.60;5.78;;;12.80;99.90;;;;;;5067486;28;20040;-57
2023/08/29 02:17:26;;;;;;;7.38;5.18;;;12.80;99.90;;;;;;5075531;28;20104;-57
2023/08/29 02:19:51;;;;;;;10.75;6.00;;;12.70;99.90;;;;;;5082208;28;20035;-56
2023/08/29 02:22:17;;;;;;;7.20;5.82;;;12.70;99.90;;;;;;5069248;28;20048;-55
2023/08/29 02:24:43;;;;;;;8.23;5.60;;;12.60;99.90;;;;;;5051252;28;20053;-57
2023/08/29 02:27:08;;;;;;;7.53;5.57;;;12.60;99.90;;;;;;5053736;28;20732;-57
2023/08/29 02:29:34;;;;;;;8.75;6.10;;;12.60;99.90;;;;;;5051233;28;21335;-54
2023/08/29 02:31:59;;;;;;;7.28;5.88;;;12.50;99.90;;;;;;5053294;28;20052;-57
2023/08/29 02:34:25;;;;;;;10.18;5.53;;;12.50;99.90;;;;;;5053255;28;20060;-56
2023/08/29 02:36:52;;;;;;;8.75;6.07;;;12.50;99.90;;;;;;5056202;28;20132;-57
2023/08/29 02:39:18;;;;;;;8.40;5.40;;;12.40;99.90;;;;;;5053135;28;20075;-57
2023/08/29 02:41:44;;;;;;;8.15;5.50;;;12.40;99.90;;;;;;5051200;28;20076;-56
2023/08/29 02:44:10;;;;;;;7.57;5.90;;;12.40;99.90;;;;;;5055845;28;20073;-57
2023/08/29 02:46:35;;;;;;;7.03;5.38;;;12.40;99.90;;;;;;5050713;28;20041;-57
2023/08/29 02:49:01;;;;;;;10.18;6.20;;;12.40;99.90;;;;;;5052364;28;20044;-57
2023/08/29 02:51:27;;;;;;;7.50;5.43;;;12.40;99.90;;;;;;5061884;28;20052;-57
2023/08/29 02:53:52;;;;;;;7.68;5.40;;;12.40;99.90;;;;;;5062139;28;20069;-56
2023/08/29 02:56:19;;;;;;;6.05;5.30;;;12.40;99.90;;;;;;5060683;28;20047;-56
2023/08/29 02:58:46;;;;;;;6.65;5.15;;;12.40;99.90;;;;;;5060802;28;20445;-56
2023/08/29 03:01:12;;;;;;;6.05;4.95;;;12.30;99.90;;;;;;5080663;28;20373;-56
2023/08/29 03:03:38;;;;;;;7.95;5.72;;;12.40;99.90;;;;;;5071235;28;20077;-57
2023/08/29 03:06:04;;;;;;;9.13;5.70;;;12.30;99.90;;;;;;5071299;28;20033;-56
2023/08/29 03:08:30;;;;;;;8.80;5.80;;;12.30;99.90;;;;;;5075695;28;20028;-56
2023/08/29 03:10:56;;;;;;;10.52;5.72;;;12.30;99.90;;;;;;5081141;28;20058;-57
2023/08/29 03:13:22;;;;;;;7.10;5.60;;;12.30;99.90;;;;;;5075651;28;20044;-56
2023/08/29 03:15:48;;;;;;;8.57;5.28;;;12.20;99.90;;;;;;5078015;28;20049;-57
2023/08/29 03:18:15;;;;;;;7.82;5.45;;;12.10;99.90;;;;;;5071170;28;20048;-57
2023/08/29 03:20:41;;;;;;;6.35;4.72;;;12.10;99.90;;;;;;5072191;28;20041;-56
2023/08/29 03:23:07;;;;;;;8.20;4.18;;;12.10;99.90;;;;;;5069416;28;20065;-56
2023/08/29 03:25:33;;;;;;;5.85;4.05;;;12.00;99.90;;;;;;5066279;28;20479;-57
2023/08/29 03:27:58;;;;;;;6.13;4.20;;;12.00;99.90;;;;;;5071888;28;20033;-56
2023/08/29 03:30:28;;;;;;;5.20;4.50;;;12.10;99.90;;;;;;5077660;28;20120;-56
2023/08/29 03:32:54;;;;;;;5.72;4.20;;;12.00;99.90;;;;;;5064681;28;20048;-57
2023/08/29 03:35:20;;;;;;;7.03;4.40;;;12.00;99.90;;;;;;5061505;28;20029;-56
2023/08/29 03:37:46;;;;;;;8.07;4.20;;;12.00;99.90;;;;;;5063256;28;20037;-57
2023/08/29 03:40:12;;;;;;;6.50;4.45;;;12.00;99.90;;;;;;5079291;28;20167;-57
2023/08/29 03:42:39;;;;;;;6.13;4.32;;;12.00;99.90;;;;;;5065314;28;20072;-57
2023/08/29 03:45:05;;;;;;;9.05;4.35;;;12.00;99.90;;;;;;5081314;28;20040;-56
2023/08/29 03:47:36;;;;;;;5.53;4.40;;;11.90;99.90;;;;;;5064220;28;20041;-56
2023/08/29 03:50:02;;;;;;;5.50;3.85;;;11.90;99.90;;;;;;5077571;28;20045;-57
2023/08/29 03:52:28;;;;;;;3.55;3.15;;;11.80;99.90;;;;;;5080817;28;20059;-56
2023/08/29 03:54:54;;;;;;;4.00;3.25;;;11.80;99.90;;;;;;5079176;28;20068;-56
2023/08/29 03:57:22;;;;;;;4.05;3.17;;;11.80;99.90;;;;;;5080609;28;20036;-56
2023/08/29 03:59:47;;;;;;;5.28;3.15;;;11.70;99.90;;;;;;5067695;28;20070;-57
2023/08/29 04:02:13;;;;;;;5.68;3.70;;;11.70;99.90;;;;;;5079721;28;20093;-57
2023/08/29 04:04:39;;;;;;;6.95;3.70;;;11.70;99.90;;;;;;5067635;28;20028;-56
2023/08/29 04:07:05;;;;;;;5.03;3.85;;;11.70;99.90;;;;;;5062004;28;20083;-56
2023/08/29 04:09:31;;;;;;;7.00;4.45;;;11.70;99.90;;;;;;5061039;28;20052;-57
2023/08/29 04:11:57;;;;;;;10.57;4.78;;;11.70;99.90;;;;;;5059449;28;20049;-57
2023/08/29 04:14:22;;;;;;;6.45;4.50;;;11.70;99.90;;;;;;5060958;28;20095;-57
2023/08/29 04:16:48;;;;;;;6.70;4.55;;;11.70;99.90;;;;;;5067653;28;20064;-57
2023/08/29 04:19:14;;;;;;;6.32;4.50;;;11.70;99.90;;;;;;5060948;28;20047;-57
2023/08/29 04:21:40;;;;;;;5.70;4.80;;;11.70;99.90;;;;;;5059462;28;20582;-56
2023/08/29 04:24:07;;;;;;;6.88;4.47;;;11.70;99.90;;;;;;5061069;28;20040;-57
2023/08/29 04:26:32;;;;;;;6.03;4.93;;;11.70;99.90;;;;;;5076698;28;20048;-56
2023/08/29 04:28:58;;;;;;;5.60;4.43;;;11.60;99.90;;;;;;5081334;28;20040;-56
2023/08/29 04:31:25;;;;;;;6.88;4.10;;;11.60;99.90;;;;;;5076502;28;20131;-57
2023/08/29 04:33:51;;;;;;;7.63;4.78;;;11.60;99.90;;;;;;5074110;28;20045;-56
2023/08/29 04:36:17;;;;;;;6.55;4.57;;;11.50;99.90;;;;;;5081660;28;20029;-56
2023/08/29 04:38:47;;;;;;;7.50;4.70;;;11.50;99.90;;;;;;5073931;28;20105;-56
2023/08/29 04:41:13;;;;;;;9.57;4.50;;;11.50;99.90;;;;;;5071259;28;20045;-56
2023/08/29 04:43:39;;;;;;;5.05;4.43;;;11.40;99.90;;;;;;5068947;28;20477;-56
2023/08/29 04:46:09;;;;;;;5.95;4.00;;;11.40;99.90;;;;;;5074110;28;20043;-56
2023/08/29 04:48:35;;;;;;;9.25;4.38;;;11.40;99.90;;;;;;5063151;28;20044;-56
2023/08/29 04:51:02;;;;;;;9.23;3.63;;;11.40;99.90;;;;;;5065521;28;20128;-56
2023/08/29 04:53:28;;;;;;;6.88;3.85;;;11.40;99.90;;;;;;5074221;28;20037;-60
2023/08/29 04:56:03;;;;;;;5.40;3.85;;;11.30;99.90;;;;;;5064815;28;20533;-56
2023/08/29 04:58:32;;;;;;;4.90;3.67;;;11.40;99.90;;;;;;5071303;28;20032;-57
2023/08/29 05:00:58;;;;;;;5.03;3.90;;;11.30;99.90;;;;;;5070019;28;20060;-56
2023/08/29 05:03:24;;;;;;;4.40;3.42;;;11.20;99.90;;;;;;5068105;28;20033;-57
2023/08/29 05:05:51;;;;;;;5.32;3.50;;;11.30;99.90;;;;;;5067352;28;20059;-56
2023/08/29 05:08:17;;;;;;;4.47;3.60;;;11.30;99.90;;;;;;5079091;28;20076;-56
2023/08/29 05:10:43;;;;;;;5.38;3.65;;;11.30;99.90;;;;;;5065403;28;20041;-56
2023/08/29 05:13:09;;;;;;;6.13;3.05;;;11.30;99.90;;;;;;5070521;28;20060;-57
2023/08/29 05:15:35;;;;;;;3.90;3.30;;;11.30;99.90;;;;;;5074279;28;20041;-56
2023/08/29 05:18:01;;;;;;;4.47;3.10;;;11.30;99.90;;;;;;5061629;28;20063;-58
2023/08/29 05:20:26;;;;;;;5.28;3.30;;;11.30;99.90;;;;;;5070174;28;20040;-56
2023/08/29 05:22:52;;;;;;;5.57;2.80;;;11.30;99.90;;;;;;5063893;28;20052;-56
2023/08/29 05:25:18;;;;;;;9.07;3.33;;;11.30;99.90;;;;;;5061994;28;20044;-56
2023/08/29 05:27:43;;;;;;;3.05;2.47;;;11.30;99.90;;;;;;5071234;28;20040;-56
2023/08/29 05:30:09;;;;;;;7.40;2.50;;;11.20;99.90;;;;;;5078901;28;20040;-56
2023/08/29 05:32:38;;;;;;;8.23;2.55;;;11.20;99.90;;;;;;5067395;28;20118;-57
2023/08/29 05:35:04;;;;;;;2.42;2.10;;;11.20;99.90;;;;;;5078353;28;20072;-56
2023/08/29 05:37:30;;;;;;;4.25;2.15;;;11.20;99.90;;;;;;5066381;28;20048;-55
2023/08/29 05:39:56;;;;;;;2.38;1.98;;;11.20;99.90;;;;;;5070867;28;20044;-57
2023/08/29 05:42:22;;;;;;;3.20;2.45;;;11.20;99.90;;;;;;5063728;28;20033;-57
2023/08/29 05:44:47;;;;;;;3.33;2.28;;;11.20;99.90;;;;;;5066232;28;20061;-56
2023/08/29 05:47:13;;;;;;;3.40;2.60;;;11.30;99.90;;;;;;5065900;28;20045;-56
2023/08/29 05:49:39;;;;;;;2.97;2.53;;;11.30;99.90;;;;;;5062931;28;20048;-56
2023/08/29 05:52:05;;;;;;;4.05;2.58;;;11.30;99.90;;;;;;5063618;28;20060;-56
2023/08/29 05:54:31;;;;;;;4.95;2.80;;;11.30;99.90;;;;;;5072995;28;20048;-57
2023/08/29 05:56:57;;;;;;;3.67;2.55;;;11.30;99.90;;;;;;5068091;28;20331;-56
2023/08/29 05:59:23;;;;;;;4.57;2.58;;;11.40;99.90;;;;;;5066519;28;20044;-56
2023/08/29 06:01:49;;;;;;;4.20;2.25;;;11.40;99.90;;;;;;5061322;28;20116;-57
2023/08/29 06:04:14;;;;;;;4.68;2.50;;;11.40;99.90;;;;;;5061602;28;20076;-55
2023/08/29 06:06:40;;;;;;;5.03;2.90;;;11.50;99.90;;;;;;5072121;28;20047;-59
2023/08/29 06:09:10;;;;;;;4.70;3.28;;;11.60;99.90;;;;;;5067686;28;20056;-57
2023/08/29 06:11:36;;;;;;;5.47;2.90;;;11.60;99.90;;;;;;5067750;28;20110;-56
2023/08/29 06:14:01;;;;;;;6.03;2.63;;;11.60;99.90;;;;;;5066187;28;20053;-57
2023/08/29 06:16:27;;;;;;;5.47;3.38;;;11.70;99.90;;;;;;5062964;28;20040;-57
2023/08/29 06:18:53;;;;;;;7.03;3.15;;;11.70;99.90;;;;;;5068400;28;20176;-56
2023/08/29 06:21:19;;;;;;;5.68;3.38;;;12.50;99.90;;;;;;5069290;28;20044;-57
2023/08/29 06:23:45;;;;;;;3.97;2.88;;;11.80;99.90;;;;;;5074318;28;20048;-56
2023/08/29 06:26:11;;;;;;;4.15;3.13;;;11.90;99.90;;;;;;5066742;28;20036;-56
2023/08/29 06:28:37;;;;;;;6.82;3.13;;;11.90;99.90;;;;;;5081701;28;20347;-56
2023/08/29 06:31:04;;;;;;;4.85;3.38;;;12.00;99.90;;;;;;5069949;28;20132;-55
2023/08/29 06:33:30;;;;;;;6.07;3.20;;;12.10;99.90;;;;;;5063059;28;20045;-56
2023/08/29 06:35:56;;;;;;;6.18;3.38;;;12.10;99.90;;;;;;5062499;28;20052;-56
2023/08/29 06:38:22;;;;;;;6.32;3.35;;;12.20;99.90;;;;;;5072196;28;20039;-56
2023/08/29 06:40:57;;;;;;;4.43;3.22;;;12.30;99.90;;;;;;5081433;28;20052;-56
2023/08/29 06:43:23;;;;;;;4.00;2.97;;;12.40;99.90;;;;;;5081210;28;20036;-56
2023/08/29 06:45:49;;;;;;;4.57;3.50;;;12.50;99.90;;;;;;5077712;28;20075;-57
2023/08/29 06:48:15;;;;;;;4.57;3.53;;;12.60;99.90;;;;;;5073117;28;20045;-57
2023/08/29 06:50:41;;;;;;;5.88;4.00;;;12.70;99.90;;;;;;5060577;28;20074;-56
2023/08/29 06:53:06;;;;;;;7.88;4.47;;;12.80;99.90;;;;;;5073165;28;20052;-56
2023/08/29 06:55:34;;;;;;;6.05;4.93;;;12.90;99.90;;;;;;5062862;28;20082;-56
2023/08/29 06:58:04;;;;;;;11.43;5.47;;;13.10;99.90;;;;;;5077191;28;20080;-56
2023/08/29 07:00:31;;;;;;;9.10;5.78;;;13.20;99.90;;;;;;5071137;28;20044;-56
2023/08/29 07:02:57;;;;;;;6.80;4.80;;;13.50;99.90;;;;;;5060476;28;20056;-56
2023/08/29 07:05:23;;;;;;;6.57;4.75;;;13.80;99.90;;;;;;5067526;28;20060;-56
2023/08/29 07:07:49;;;;;;;6.45;4.10;;;14.10;99.90;;;;;;5064617;28;20058;-57
2023/08/29 07:10:16;;;;;;;7.30;3.95;;;14.50;99.90;;;;;;5063528;28;20055;-56
2023/08/29 07:12:42;;;;;;;4.72;3.72;;;14.90;99.90;;;;;;5058718;28;20144;-56
2023/08/29 07:15:08;;;;;;;5.05;3.47;;;15.20;99.90;;;;;;5066237;28;20675;-56
2023/08/29 07:17:34;;;;;;;6.25;3.85;;;15.50;99.90;;;;;;5070525;28;20028;-57
2023/08/29 07:20:00;;;;;;;4.38;3.55;;;15.70;99.90;;;;;;5061291;28;20071;-57
2023/08/29 07:22:25;;;;;;;4.90;3.33;;;15.90;99.90;;;;;;5066636;28;20040;-56
2023/08/29 07:24:52;;;;;;;5.13;3.38;;;16.10;99.90;;;;;;5057567;28;20049;-56
2023/08/29 07:27:18;;;;;;;5.57;2.92;;;16.30;99.90;;;;;;5072242;28;20100;-57
2023/08/29 07:29:43;;;;;;;8.20;3.30;;;16.50;99.90;;;;;;5059415;28;20752;-57
2023/08/29 07:32:09;;;;;;;6.47;3.13;;;16.60;99.90;;;;;;5063402;28;20066;-56
2023/08/29 07:34:35;;;;;;;4.95;2.75;;;16.70;99.90;;;;;;5060209;28;20044;-56
2023/08/29 07:37:00;;;;;;;4.32;2.60;;;16.80;99.90;;;;;;5061157;28;20039;-56
2023/08/29 07:39:26;;;;;;;5.28;2.72;;;16.90;99.90;;;;;;5060029;28;20037;-56
2023/08/29 07:41:52;;;;;;;6.45;3.28;;;16.90;99.90;;;;;;5067082;28;20052;-56
2023/08/29 07:44:19;;;;;;;4.25;3.40;;;16.90;99.90;;;;;;5066913;28;20063;-57
2023/08/29 07:46:44;;;;;;;4.40;3.72;;;16.80;99.90;;;;;;5064621;28;20087;-56
2023/08/29 07:49:13;;;;;;;6.35;3.28;;;16.90;99.90;;;;;;5058288;28;20041;-57
2023/08/29 07:51:42;;;;;;;8.25;3.63;;;16.80;99.90;;;;;;5058277;28;20048;-57
2023/08/29 07:54:07;;;;;;;5.95;4.22;;;16.80;99.90;;;;;;5059865;28;20037;-57
2023/08/29 07:56:33;;;;;;;5.95;4.07;;;16.90;99.90;;;;;;5058155;28;20080;-56
2023/08/29 07:58:59;;;;;;;7.53;4.85;;;16.80;99.90;;;;;;5067751;28;20042;-57
2023/08/29 08:01:25;;;;;;;6.28;4.75;;;16.80;99.90;;;;;;5064097;28;20076;-57
2023/08/29 08:03:50;;;;;;;5.60;4.57;;;16.60;99.90;;;;;;5061227;28;20075;-57
2023/08/29 08:06:16;;;;;;;5.38;3.88;;;16.80;99.90;;;;;;5061113;28;20120;-56
2023/08/29 08:08:42;;;;;;;8.27;4.70;;;16.80;99.90;;;;;;5074826;28;20045;-57
2023/08/29 08:11:08;;;;;;;5.93;4.88;;;16.70;99.90;;;;;;5068670;28;20106;-57
2023/08/29 08:13:34;;;;;;;8.63;4.15;;;16.70;99.90;;;;;;5064164;28;20047;-56
2023/08/29 08:16:00;;;;;;;8.88;4.13;;;16.70;99.90;;;;;;5061187;28;20065;-57
2023/08/29 08:18:26;;;;;;;5.88;4.22;;;16.70;99.90;;;;;;5074537;28;20045;-57
2023/08/29 08:20:51;;;;;;;6.55;3.80;;;16.70;99.90;;;;;;5063967;28;20051;-54
2023/08/29 08:23:17;;;;;;;7.50;3.95;;;16.70;99.90;;;;;;5068165;28;20029;-56
2023/08/29 08:25:44;;;;;;;4.88;3.88;;;16.80;99.90;;;;;;5072163;28;20103;-56
2023/08/29 08:28:10;;;;;;;5.43;4.00;;;16.80;99.90;;;;;;5067348;28;20079;-56
2023/08/29 08:30:39;;;;;;;5.07;3.83;;;16.80;99.90;;;;;;5062067;28;20049;-57
2023/08/29 08:33:05;;;;;;;7.70;3.75;;;16.90;99.90;;;;;;5071770;28;20033;-58
2023/08/29 08:35:32;;;;;;;5.28;3.28;;;17.00;99.90;;;;;;5072683;28;20029;-56
2023/08/29 08:37:58;;;;;;;8.13;3.85;;;17.10;99.90;;;;;;5067790;28;20045;-59
2023/08/29 08:40:23;;;;;;;6.50;3.70;;;17.10;99.90;;;;;;5066782;28;20045;-57
2023/08/29 08:42:49;;;;;;;6.50;2.88;;;17.20;99.90;;;;;;5072724;28;20032;-57
2023/08/29 08:45:16;;;;;;;6.63;2.90;;;17.20;99.90;;;;;;5065551;28;20096;-58
2023/08/29 08:47:43;;;;;;;7.93;3.25;;;17.30;99.90;;;;;;5064766;28;21670;-57
2023/08/29 08:50:09;;;;;;;4.28;2.58;;;17.40;99.90;;;;;;5060100;28;20045;-57
2023/08/29 08:52:38;;;;;;;7.13;2.50;;;17.40;99.90;;;;;;5061205;28;20387;-57
2023/08/29 08:55:05;;;;;;;4.07;2.40;;;17.60;99.90;;;;;;5062582;28;20052;-57
2023/08/29 08:57:31;;;;;;;4.30;3.05;;;17.60;99.90;;;;;;5070267;28;20029;-58
2023/08/29 08:59:57;;;;;;;4.65;2.88;;;17.70;99.90;;;;;;5062775;28;20037;-57
2023/08/29 09:02:24;;;;;;;5.63;3.10;;;17.80;99.90;;;;;;5064082;28;20040;-57
2023/08/29 09:04:50;;;;;;;4.85;3.00;;;17.90;99.90;;;;;;5062694;28;20119;-57
2023/08/29 09:07:16;;;;;;;6.85;3.00;;;17.90;99.90;;;;;;5068836;28;20049;-57
2023/08/29 09:09:42;;;;;;;5.82;3.53;;;17.90;99.90;;;;;;5072433;28;20060;-56
2023/08/29 09:12:07;;;;;;;5.22;3.20;;;17.90;99.90;;;;;;5078834;28;20049;-57
2023/08/29 09:14:33;;;;;;;10.25;3.05;;;17.80;99.90;;;;;;5062663;28;20049;-57
2023/08/29 09:17:01;;;;;;;4.97;2.50;;;17.80;99.90;;;;;;5067663;28;20037;-57
2023/08/29 09:19:29;;;;;;;6.55;2.75;;;17.80;99.90;;;;;;5069555;28;20045;-57
2023/08/29 09:21:55;;;;;;;6.28;2.40;;;17.80;99.90;;;;;;5069784;28;20047;-57
2023/08/29 09:24:35;;;;;;;4.60;2.05;;;17.80;99.90;;;;;;5071690;28;20127;-57
2023/08/29 09:27:09;;;;;;;5.28;2.38;;;17.80;99.90;;;;;;5064871;28;20070;-58
2023/08/29 09:29:35;;;;;;;4.93;2.58;;;17.80;99.90;;;;;;5074735;28;20040;-59
2023/08/29 09:32:13;;;;;;;5.80;2.53;;;17.80;99.90;;;;;;5069414;28;20040;-58
2023/08/29 09:34:39;;;;;;;4.25;2.85;;;17.80;99.90;;;;;;5067817;28;20068;-56
2023/08/29 09:37:06;;;;;;;3.65;2.80;;;17.90;99.90;;;;;;5073617;28;20053;-57
2023/08/29 09:39:31;;;;;;;3.85;2.80;;;17.90;99.90;;;;;;5070574;28;20118;-57
2023/08/29 09:42:04;;;;;;;5.85;2.97;;;17.90;99.90;;;;;;5072038;28;20036;-56
2023/08/29 09:44:37;;;;;;;6.45;2.70;;;17.90;99.90;;;;;;5068271;28;20040;-57
2023/08/29 09:47:03;;;;;;;5.43;3.15;;;17.90;99.90;;;;;;5058371;28;20041;-58
2023/08/29 09:49:47;;;;;;;6.63;2.70;;;18.00;99.90;;;;;;5063847;28;20041;-58
2023/08/29 09:52:14;;;;;;;5.30;2.58;;;18.00;99.90;;;;;;5064687;28;20052;-57
2023/08/29 09:54:51;;;;;;;4.32;2.55;;;18.10;99.90;;;;;;5067131;28;20033;-57
2023/08/29 09:57:21;;;;;;;3.80;2.40;;;18.20;99.90;;;;;;5066450;28;20041;-58
2023/08/29 09:59:49;;;;;;;3.00;2.50;;;18.20;99.90;;;;;;5066359;28;20092;-57
2023/08/29 10:02:18;;;;;;;6.80;2.70;;;18.20;99.90;;;;;;5067089;28;20037;-57
2023/08/29 10:05:12;;;;;;;5.85;2.72;;;18.30;99.90;;;;;;5059312;28;20135;-57
2023/08/29 10:07:41;;;;;;;6.28;2.53;;;18.30;99.90;;;;;;5065243;28;20052;-57
2023/08/29 10:10:08;;;;;;;4.93;2.85;;;18.30;99.90;;;;;;5059237;28;20037;-57
2023/08/29 10:12:34;;;;;;;5.40;2.22;;;18.40;99.90;;;;;;5059841;28;20440;-57
2023/08/29 10:15:01;;;;;;;3.75;2.50;;;18.40;99.90;;;;;;5063619;28;20040;-58
2023/08/29 10:17:27;;;;;;;3.50;2.20;;;18.50;99.90;;;;;;5062898;28;20098;-57
2023/08/29 10:19:54;;;;;;;3.10;2.00;;;18.50;99.90;;;;;;5058855;28;20041;-57
2023/08/29 10:22:21;;;;;;;3.35;2.00;;;18.50;99.90;;;;;;5060903;28;20096;-57
2023/08/29 10:24:49;;;;;;;4.80;2.20;;;18.50;99.90;;;;;;5062687;28;20036;-54
2023/08/29 10:27:14;;;;;;;4.30;1.85;;;18.50;99.90;;;;;;5062284;28;20040;-57
2023/08/29 10:29:40;;;;;;;5.22;2.60;;;18.50;99.90;;;;;;5062093;28;21264;-57
2023/08/29 10:32:07;;;;;;;2.85;2.10;;;18.50;99.90;;;;;;5059835;28;20037;-57
2023/08/29 10:34:35;;;;;;;3.63;2.00;;;18.50;99.90;;;;;;5065136;28;20032;-57
2023/08/29 10:37:03;;;;;;;2.45;1.50;;;18.50;99.90;;;;;;5069581;28;20094;-57
2023/08/29 10:39:30;;;;;;;5.50;1.90;;;18.50;99.90;;;;;;5076235;28;20024;-57
2023/08/29 10:41:57;;;;;;;6.72;2.28;;;18.50;99.90;;;;;;5068359;28;20076;-58
2023/08/29 10:44:43;;;;;;;4.68;2.22;;;18.60;99.90;;;;;;5058458;28;20374;-57
2023/08/29 10:47:26;;;;;;;4.88;2.30;;;18.60;99.90;;;;;;5059480;28;20044;-58
2023/08/29 10:50:00;;;;;;;3.95;2.10;;;18.70;99.90;;;;;;5065750;28;20041;-57
2023/08/29 10:52:40;;;;;;;5.55;2.55;;;18.70;99.90;;;;;;5070701;28;20044;-57
2023/08/29 10:55:22;;;;;;;4.40;2.90;;;18.70;99.90;;;;;;5072995;28;20055;-58
2023/08/29 10:57:49;;;;;;;4.90;3.15;;;18.70;99.90;;;;;;5066735;28;20182;-57
2023/08/29 11:00:40;;;;;;;4.82;2.88;;;18.80;99.90;;;;;;5065718;28;20049;-57
2023/08/29 11:03:06;;;;;;;4.65;3.20;;;18.90;99.90;;;;;;5059464;28;20037;-57
2023/08/29 11:05:33;;;;;;;8.18;3.67;;;19.00;99.90;;;;;;5071943;28;20119;-57
2023/08/29 11:08:22;;;;;;;4.53;3.20;;;19.10;99.90;;;;;;5056506;28;20048;-57
2023/08/29 11:11:14;;;;;;;4.93;3.55;;;19.20;99.90;;;;;;5068424;28;20481;-57
2023/08/29 11:14:03;;;;;;;6.30;4.10;;;19.30;99.90;;;;;;5069199;28;20045;-56
2023/08/29 11:16:30;;;;;;;5.45;4.07;;;19.50;99.90;;;;;;5063685;28;20041;-57
2023/08/29 11:19:14;;;;;;;7.25;3.90;;;19.60;99.90;;;;;;5064399;28;20086;-58
2023/08/29 11:21:43;;;;;;;7.18;4.75;;;19.70;99.90;;;;;;5074678;28;20047;-57
2023/08/29 11:24:12;;;;;;;6.90;3.95;;;19.90;99.90;;;;;;5061916;28;20127;-58
2023/08/29 11:26:43;;;;;;;6.10;3.40;;;19.90;99.90;;;;;;5061020;28;20124;-57
2023/08/29 11:29:09;;;;;;;3.70;3.35;;;20.00;99.90;;;;;;5059765;28;20052;-57
2023/08/29 11:31:39;;;;;;;4.97;4.25;;;20.10;99.90;;;;;;5067166;28;20039;-58
2023/08/29 11:34:34;;;;;;;4.95;4.20;;;20.20;99.90;;;;;;5065633;28;20041;-58
2023/08/29 11:37:00;;;;;;;5.95;4.47;;;20.20;99.90;;;;;;5064729;28;20048;-58
2023/08/29 11:39:26;;;;;;;5.50;4.40;;;20.10;99.90;;;;;;5065992;28;20055;-58
2023/08/29 11:41:51;;;;;;;7.30;4.32;;;20.00;99.90;;;;;;5069053;28;20048;-57
2023/08/29 11:44:17;;;;;;;4.68;4.18;;;20.00;99.90;;;;;;5064916;28;20189;-57
2023/08/29 11:46:43;;;;;;;4.72;3.88;;;19.90;99.90;;;;;;5069798;28;20110;-59
2023/08/29 11:49:13;;;;;;;4.20;3.63;;;19.90;99.90;;;;;;5077487;28;20397;-57
2023/08/29 11:51:39;;;;;;;6.50;3.63;;;19.90;99.90;;;;;;5063735;28;20471;-58
2023/08/29 11:54:41;;;;;;;6.18;4.22;;;19.90;99.90;;;;;;5070552;28;20436;-58
2023/08/29 11:57:11;;;;;;;4.75;4.18;;;19.90;99.90;;;;;;5076456;28;20045;-57
2023/08/29 11:59:40;;;;;;;7.60;4.10;;;19.80;99.90;;;;;;5067074;28;20075;-57
2023/08/29 12:02:08;;;;;;;6.47;3.60;;;19.80;99.90;;;;;;5068860;28;20035;-57
2023/08/29 12:04:39;;;;;;;5.50;4.00;;;19.70;99.90;;;;;;5063148;28;20041;-56
2023/08/29 12:07:07;;;;;;;5.55;4.18;;;19.70;99.90;;;;;;5068895;28;20048;-57
2023/08/29 12:09:33;;;;;;;5.65;4.38;;;19.70;99.90;;;;;;5060962;28;20175;-57
2023/08/29 12:11:59;;;;;;;4.70;4.03;;;19.60;99.90;;;;;;5061133;28;20108;-57
2023/08/29 12:14:25;;;;;;;5.68;3.95;;;19.60;99.90;;;;;;5063712;28;20092;-57
2023/08/29 12:16:53;;;;;;;5.38;3.72;;;19.60;99.90;;;;;;5069752;28;20052;-58
2023/08/29 12:19:19;;;;;;;5.63;3.95;;;19.50;99.90;;;;;;5066931;28;20040;-57
2023/08/29 12:21:55;;;;;;;4.38;3.35;;;19.50;99.90;;;;;;5067100;28;20349;-57
2023/08/29 12:24:21;;;;;;;3.45;3.15;;;19.50;99.90;;;;;;5060630;28;20155;-59
2023/08/29 12:26:47;;;;;;;3.03;2.72;;;19.40;99.90;;;;;;5069307;28;20041;-58
2023/08/29 12:29:13;;;;;;;4.93;2.40;;;19.40;99.90;;;;;;5060973;28;20493;-57
2023/08/29 12:31:38;;;;;;;3.90;2.20;;;19.40;99.90;;;;;;5062160;28;20479;-57
2023/08/29 12:34:04;;;;;;;4.65;2.67;;;19.80;99.90;;;;;;5060813;28;20037;-58
2023/08/29 12:36:30;;;;;;;4.13;2.97;;;19.40;99.90;;;;;;5064313;28;20037;-58
2023/08/29 12:38:56;;;;;;;3.85;3.22;;;19.40;99.90;;;;;;5066717;28;20107;-58
2023/08/29 12:41:22;;;;;;;3.80;3.10;;;19.50;99.90;;;;;;5058254;28;20048;-58
2023/08/29 12:43:49;;;;;;;4.70;3.00;;;19.50;99.90;;;;;;5059515;28;20075;-58
2023/08/29 12:46:14;;;;;;;3.67;2.50;;;19.50;99.90;;;;;;5064648;28;20048;-58
2023/08/29 12:48:40;;;;;;;4.50;3.10;;;19.40;99.90;;;;;;5061087;28;20044;-57